Latest Weather Observations for Richmond

IDQ60801

Issued at 12:02 pm EST Thursday 30 July 2015 (issued every 30 minutes, with the page automatically refreshed every 10 minutes)

About weather observations | Map of weather stations | Latest weather observations for QLD | Other Formats
Station Details ID: 030161 Name: RICHMOND AIRPORT Lat: -20.70 Lon: 143.12 Height: 206.3 m
Data from the previous 72 hours. | See also: Recent months at Richmond
Date/Time
EST
Temp
°C
App
Temp
°C
Dew
Point
Rel
Hum
%
Delta-T
°C
Wind Press
QNH
hPa
Press
MSL
hPa
Rain
since 9 am
mm
Dir
 
Spd
km/h
Gust
km/h
Spd
kts
Gust
kts
30/12:00pm 26.1 22.3 5.7 27 10.6 ENE 15 28 8 15 1021.7 1021.3 0.0
30/11:30am 24.8 19.6 5.6 29 9.8 E 22 30 12 16 1022.1 1021.7 0.0
30/11:00am 24.2 19.6 6.5 32 9.2 ENE 20 28 11 15 1022.6 1022.2 0.0
30/10:30am 23.1 18.6 6.8 35 8.5 ENE 20 30 11 16 1022.9 1022.5 0.0
30/10:00am 22.8 18.7 7.8 38 7.9 ENE 19 33 10 18 1023.0 1022.6 0.0
30/09:30am 21.2 16.5 7.8 42 7.0 ENE 22 35 12 19 1023.0 1022.6 0.0
30/09:00am 19.9 15.3 8.3 47 6.1 ENE 22 35 12 19 1022.8 1022.4 0.0
30/08:30am 18.8 14.8 9.0 53 5.2 ENE 20 32 11 17 1022.5 1022.1 0.0
30/08:00am 15.9 13.7 7.7 58 4.1 E 9 13 5 7 1022.4 1022.0 0.0
30/07:30am 12.8 9.4 4.0 55 4.0 ESE 11 11 6 6 1022.1 1021.7 0.0
30/07:00am 13.0 9.1 3.4 52 4.3 E 13 15 7 8 1021.8 1021.4 0.0
30/06:30am 13.4 9.6 3.8 52 4.4 E 13 15 7 8 1021.5 1021.1 0.0
30/06:00am 11.7 8.7 2.2 52 4.1 SE 7 11 4 6 1021.4 1021.0 0.0
30/05:30am 13.3 9.8 3.4 51 4.5 ESE 11 13 6 7 1021.0 1020.6 0.0
30/05:00am 13.5 10.7 3.0 49 4.7 E 7 9 4 5 1020.8 1020.4 0.0
30/04:30am 14.6 10.4 3.7 48 5.0 ESE 15 19 8 10 1020.7 1020.3 0.0
30/04:00am 15.2 10.6 3.7 46 5.3 ESE 17 20 9 11 1020.6 1020.2 0.0
30/03:30am 15.6 11.0 3.7 45 5.5 E 17 20 9 11 1020.9 1020.5 0.0
30/03:00am 15.8 10.9 3.9 45 5.5 ESE 19 20 10 11 1021.2 1020.8 0.0
30/02:30am 16.3 11.1 3.7 43 5.9 E 20 24 11 13 1021.4 1021.0 0.0
30/02:00am 16.8 11.3 3.8 42 6.1 E 22 30 12 16 1021.5 1021.1 0.0
30/01:30am 17.5 11.6 4.1 41 6.4 E 24 28 13 15 1021.7 1021.3 0.0
30/01:00am 17.7 11.7 3.6 39 6.6 ESE 24 32 13 17 1021.9 1021.5 0.0
30/12:30am 17.9 12.4 3.8 39 6.7 ESE 22 30 12 16 1022.0 1021.6 0.0
30/12:00am 17.8 12.1 2.9 37 6.9 ESE 22 28 12 15 1022.2 1021.8 0.0
 
Date/Time
EST
Temp
°C
App
Temp
°C
Dew
Point
Rel
Hum
%
Delta-T
°C
Wind Press
QNH
hPa
Press
MSL
hPa
Rain
since 9 am
mm
Dir
 
Spd
km/h
Gust
km/h
Spd
kts
Gust
kts
29/11:30pm 18.5 11.6 2.8 35 7.3 ESE 28 37 15 20 1022.1 1021.7 0.0
29/11:00pm 19.0 12.5 2.8 34 7.6 ESE 26 35 14 19 1022.2 1021.8 0.0
29/10:30pm 19.9 13.0 2.7 32 8.1 ESE 28 35 15 19 1022.3 1021.9 0.0
29/10:00pm 20.3 13.9 3.1 32 8.2 ESE 26 37 14 20 1022.3 1021.9 0.0
29/09:30pm 20.5 14.0 2.8 31 8.4 ESE 26 32 14 17 1022.4 1022.0 0.0
29/09:00pm 21.4 15.0 3.1 30 8.7 ESE 26 33 14 18 1022.3 1021.9 0.0
29/08:30pm 21.7 15.3 3.4 30 8.8 ESE 26 32 14 17 1022.1 1021.7 0.0
29/08:00pm 22.1 16.1 3.3 29 9.1 SE 24 28 13 15 1021.6 1021.2 0.0
29/07:30pm 22.8 16.9 3.9 29 9.3 SE 24 30 13 16 1021.2 1020.8 0.0
29/07:00pm 23.1 18.0 4.1 29 9.4 SE 20 28 11 15 1020.7 1020.3 0.0
29/06:30pm 24.0 18.2 4.4 28 9.8 ESE 24 32 13 17 1020.4 1019.9 0.0
29/06:00pm 25.3 19.5 4.4 26 10.5 ESE 24 32 13 17 1020.3 1019.8 0.0
29/05:30pm 26.3 19.7 4.1 24 11.2 ESE 28 35 15 19 1020.2 1019.7 0.0
29/05:00pm 26.8 20.3 4.6 24 11.3 SE 28 35 15 19 1020.2 1019.7 0.0
29/04:30pm 27.4 21.0 5.1 24 11.6 SE 28 39 15 21 1020.1 1019.6 0.0
29/04:00pm 27.5 21.3 4.5 23 11.8 ESE 26 35 14 19 1020.1 1019.6 0.0
29/03:30pm 28.2 22.7 5.7 24 11.8 SE 24 32 13 17 1020.2 1019.7 0.0
29/03:00pm 27.7 21.7 5.3 24 11.6 ESE 26 35 14 19 1020.5 1020.1 0.0
29/02:30pm 27.4 21.6 4.5 23 11.7 ESE 24 32 13 17 1020.7 1020.3 0.0
29/02:00pm 27.4 21.8 5.6 25 11.4 E 24 32 13 17 1021.1 1020.7 0.0
29/01:30pm 27.5 22.2 5.1 24 11.6 ESE 22 32 12 17 1021.6 1021.2 0.0
29/01:00pm 26.7 21.9 4.5 24 11.3 E 19 28 10 15 1022.1 1021.7 0.0
29/12:30pm 25.9 20.4 3.8 24 11.1 E 22 32 12 17 1022.6 1022.2 0.0
29/12:00pm 25.1 19.3 2.5 23 11.0 E 22 30 12 16 1023.1 1022.7 0.0
29/11:30am 24.3 18.2 3.0 25 10.4 E 24 33 13 18 1023.7 1023.3 0.0
29/11:00am 22.8 15.9 2.8 27 9.6 ENE 28 37 15 20 1024.0 1023.6 0.0
29/10:30am 21.7 15.1 1.9 27 9.3 E 26 33 14 18 1024.3 1023.9 0.0
29/10:00am 20.4 12.9 1.3 28 8.7 E 30 35 16 19 1024.9 1024.5 0.0
29/09:30am 19.3 11.2 1.3 30 8.2 E 33 41 18 22 1024.8 1024.4 0.0
29/09:00am 17.7 11.1 -0.5 29 7.8 E 24 35 13 19 1024.8 1024.4 0.0
29/08:30am 15.9 8.8 -1.6 30 7.3 E 26 33 14 18 1024.7 1024.3 0.0
29/08:00am 14.3 7.4 -2.6 31 6.7 E 24 35 13 19 1024.4 1024.0 0.0
29/07:30am 13.3 6.4 -3.0 32 6.4 ESE 24 32 13 17 1024.3 1023.9 0.0
29/07:00am 13.2 6.3 -2.7 33 6.3 ESE 24 32 13 17 1024.1 1023.7 0.0
29/06:30am 12.7 6.6 -2.7 34 6.1 ESE 20 28 11 15 1023.9 1023.5 0.0
29/06:00am 12.6 6.6 -2.8 34 6.0 ESE 19 22 10 12 1023.7 1023.3 0.0
29/05:30am 13.9 7.8 -2.1 33 6.5 ESE 20 24 11 13 1023.6 1023.2 0.0
29/05:00am 13.9 7.4 -2.5 32 6.5 ESE 22 30 12 16 1023.4 1023.0 0.0
29/04:30am 14.0 7.5 -2.8 31 6.7 ESE 22 26 12 14 1023.2 1022.8 0.0
29/04:00am 14.3 7.7 -3.5 29 7.0 ESE 22 30 12 16 1023.2 1022.8 0.0
29/03:30am 14.6 7.6 -3.7 28 7.2 ESE 24 30 13 16 1023.3 1022.9 0.0
29/03:00am 14.7 8.4 -3.6 28 7.2 ESE 20 28 11 15 1023.4 1023.0 0.0
29/02:30am 15.2 8.6 -3.6 27 7.4 ESE 22 30 12 16 1023.5 1023.1 0.0
29/02:00am 15.5 8.1 -3.9 26 7.6 SE 26 32 14 17 1023.8 1023.4 0.0
29/01:30am 15.8 8.4 -3.6 26 7.7 SE 26 35 14 19 1023.9 1023.5 0.0
29/01:00am 16.0 8.6 -3.5 26 7.8 SE 26 35 14 19 1023.9 1023.5 0.0
29/12:30am 16.7 8.2 -3.4 25 8.1 SE 32 37 17 20 1023.9 1023.5 0.0
29/12:00am 17.2 9.6 -1.9 27 8.0 SE 28 37 15 20 1024.0 1023.6 0.0
 
Date/Time
EST
Temp
°C
App
Temp
°C
Dew
Point
Rel
Hum
%
Delta-T
°C
Wind Press
QNH
hPa
Press
MSL
hPa
Rain
since 9 am
mm
Dir
 
Spd
km/h
Gust
km/h
Spd
kts
Gust
kts
28/11:30pm 17.4 10.0 -0.8 29 7.8 SE 28 35 15 19 1024.1 1023.7 0.0
28/11:00pm 17.8 11.0 0.9 32 7.5 SE 26 32 14 17 1024.2 1023.8 0.0
28/10:30pm 17.8 12.2 1.3 33 7.4 SE 20 24 11 13 1024.1 1023.7 0.0
28/10:00pm 19.1 12.9 2.0 32 7.8 SE 24 28 13 15 1024.2 1023.8 0.0
28/09:30pm 20.4 13.8 2.3 30 8.5 SE 26 32 14 17 1024.1 1023.7 0.0
28/09:00pm 20.7 14.6 2.5 30 8.5 SE 24 32 13 17 1023.9 1023.5 0.0
28/08:30pm 21.0 14.6 3.2 31 8.5 SE 26 35 14 19 1023.7 1023.3 0.0
28/08:00pm 21.5 15.6 3.7 31 8.6 SE 24 32 13 17 1023.3 1022.9 0.0
28/07:30pm 22.1 15.5 4.2 31 8.8 SE 28 35 15 19 1022.9 1022.5 0.0
28/07:00pm 22.7 17.0 4.7 31 8.9 SE 24 32 13 17 1022.5 1022.1 0.0
28/06:30pm 23.3 16.8 4.8 30 9.3 SE 28 35 15 19 1022.3 1021.9 0.0
28/06:00pm 24.3 17.0 5.6 30 9.6 SE 33 46 18 25 1022.1 1021.7 0.0
28/05:30pm 25.2 18.0 5.9 29 10.0 SE 33 41 18 22 1021.9 1021.5 0.0
28/05:00pm 26.0 19.2 7.1 30 10.0 ESE 32 43 17 23 1021.7 1021.3 0.0
28/04:30pm 26.4 19.7 7.4 30 10.2 SE 32 44 17 24 1021.6 1021.2 0.0
28/04:00pm 27.1 20.6 8.0 30 10.4 SE 32 43 17 23 1021.6 1021.2 0.0
28/03:30pm 27.1 20.8 7.5 29 10.6 SE 30 46 16 25 1021.6 1021.2 0.0
28/03:25pm 27.5 21.7 7.9 29 10.7 SE 28 46 15 25 1021.4 1021.0 0.0
28/03:00pm 27.1 20.9 8.0 30 10.4 ESE 30 39 16 21 1021.7 1021.3 0.0
28/02:34pm 27.1 20.9 8.0 30 10.4 SE 30 54 16 29 1021.7 1021.3 0.0
28/02:30pm 26.6 20.3 7.6 30 10.2 ESE 30 43 16 23 1021.9 1021.5 0.0
28/02:00pm 25.6 18.9 7.2 31 9.8 ESE 32 43 17 23 1022.0 1021.6 0.0
28/01:30pm 25.7 19.3 6.8 30 10.0 SE 30 50 16 27 1022.4 1022.0 0.0
28/01:23pm 25.1 18.7 6.8 31 9.6 SE 30 50 16 27 1022.5 1022.1 0.0
28/01:00pm 25.0 18.0 6.7 31 9.6 SE 33 46 18 25 1022.8 1022.4 0.0
28/12:30pm 23.8 17.2 6.1 32 9.1 ESE 30 44 16 24 1023.5 1023.1 0.0
28/12:04pm 23.1 15.9 6.0 33 8.8 SE 33 54 18 29 1024.0 1023.6 0.0
28/12:00pm 23.5 16.3 5.9 32 9.0 SE 33 43 18 23 1024.1 1023.7 0.0
28/11:30am 22.5 15.3 5.9 34 8.5 ESE 33 43 18 23 1024.5 1024.1 0.0
28/11:00am 21.4 13.4 5.7 36 7.9 ESE 37 46 20 25 1025.0 1024.6 0.0
28/10:30am 20.3 12.5 5.1 37 7.5 ESE 35 46 19 25 1025.2 1024.8 0.0
28/10:00am 20.0 12.7 5.3 38 7.2 ESE 33 50 18 27 1025.6 1025.2 0.0
28/09:30am 18.4 9.9 5.3 42 6.4 ESE 39 50 21 27 1025.6 1025.2 0.0
28/09:00am 17.8 10.5 5.4 44 6.0 ESE 33 46 18 25 1025.5 1025.1 0.0
28/08:30am 16.4 9.2 4.8 46 5.5 SE 32 39 17 21 1025.3 1024.9 0.0
28/08:00am 15.6 9.5 4.6 48 5.2 SE 26 37 14 20 1025.4 1025.0 0.0
28/07:30am 14.7 9.3 4.4 50 4.8 SE 22 30 12 16 1025.2 1024.8 0.0
28/07:00am 14.9 9.1 4.3 49 4.9 SE 24 30 13 16 1024.9 1024.5 0.0
28/06:30am 15.2 9.7 4.0 47 5.2 SE 22 32 12 17 1024.4 1024.0 0.0
28/06:00am 15.4 10.3 3.9 46 5.3 SE 20 26 11 14 1023.9 1023.5 0.0
28/05:30am 15.2 10.1 3.0 44 5.6 SSE 19 22 10 12 1023.9 1023.5 0.0
28/05:00am 16.0 10.7 2.8 41 6.0 SE 20 28 11 15 1023.7 1023.3 0.0
28/04:30am 16.3 11.1 2.3 39 6.4 SE 19 24 10 13 1023.8 1023.4 0.0
28/04:00am 17.0 11.2 2.2 37 6.7 SE 22 26 12 14 1023.8 1023.4 0.0
28/03:30am 17.1 11.3 2.3 37 6.8 SE 22 28 12 15 1023.8 1023.4 0.0
28/03:00am 16.7 12.0 1.2 35 6.9 SE 15 20 8 11 1024.2 1023.8 0.0
28/02:30am 17.0 11.6 1.0 34 7.1 SE 19 24 10 13 1024.2 1023.8 0.0
28/02:00am 17.2 10.8 0.8 33 7.2 SE 24 28 13 15 1023.9 1023.5 0.0
28/01:30am 17.2 11.2 0.8 33 7.3 SSE 22 26 12 14 1024.4 1024.0 0.0
28/01:00am 17.0 11.2 0.2 32 7.3 SSE 20 24 11 13 1024.3 1023.9 0.0
28/12:30am 17.6 11.8 -0.2 30 7.8 SE 20 28 11 15 1024.4 1024.0 0.0
28/12:00am 17.7 11.1 -0.1 30 7.7 SSE 24 30 13 16 1024.4 1024.0 0.0
 
Date/Time
EST
Temp
°C
App
Temp
°C
Dew
Point
Rel
Hum
%
Delta-T
°C
Wind Press
QNH
hPa
Press
MSL
hPa
Rain
since 9 am
mm
Dir
 
Spd
km/h
Gust
km/h
Spd
kts
Gust
kts
27/11:30pm 18.0 11.0 -0.3 29 8.0 SSE 26 32 14 17 1024.5 1024.1 0.0
27/11:00pm 17.5 11.6 -0.7 29 7.8 SSE 20 24 11 13 1025.0 1024.6 0.0
27/10:30pm 18.1 11.9 -0.2 29 8.0 SSE 22 28 12 15 1025.1 1024.7 0.0
27/10:00pm 19.1 12.1 -0.3 27 8.5 SSE 26 32 14 17 1024.9 1024.5 0.0
27/09:30pm 19.7 12.4 0.2 27 8.7 SSE 28 35 15 19 1024.8 1024.4 0.0
27/09:00pm 20.0 13.2 0.5 27 8.7 SSE 26 32 14 17 1024.8 1024.4 0.0
27/08:30pm 20.7 13.9 0.5 26 9.2 SSE 26 33 14 18 1024.5 1024.1 0.0
27/08:00pm 21.4 13.4 0.6 25 9.5 SSE 32 39 17 21 1024.2 1023.8 0.0
27/07:30pm 22.1 14.6 1.2 25 9.7 SSE 30 37 16 20 1023.7 1023.3 0.0
27/07:00pm 22.9 15.0 1.3 24 10.1 SSE 32 39 17 21 1023.4 1023.0 0.0
27/06:30pm 23.7 15.7 1.4 23 10.5 S 33 44 18 24 1022.8 1022.4 0.0
27/06:00pm 24.7 15.9 1.6 22 11.0 SSE 37 44 20 24 1022.3 1021.9 0.0
27/05:30pm 25.9 18.1 2.6 22 11.4 SSE 33 44 18 24 1021.8 1021.4 0.0
27/05:00pm 27.0 18.8 2.8 21 12.0 SSE 35 44 19 24 1021.4 1021.0 0.0
27/04:30pm 27.7 20.0 3.4 21 12.2 SSE 33 44 18 24 1021.2 1020.8 0.0
27/04:00pm 28.1 20.6 3.7 21 12.3 SSE 32 41 17 22 1021.0 1020.6 0.0
27/03:30pm 28.4 21.4 4.0 21 12.5 SE 30 39 16 21 1020.9 1020.5 0.0
27/03:00pm 27.9 20.8 3.6 21 12.3 SE 30 41 16 22 1021.0 1020.6 0.0
27/02:30pm 27.6 20.1 3.3 21 12.2 SE 32 41 17 22 1021.2 1020.8 0.0
27/02:00pm 27.3 19.7 3.7 22 11.9 SE 33 43 18 23 1021.6 1021.2 0.0
27/01:30pm 25.6 17.4 2.9 23 11.2 SE 35 44 19 24 1022.3 1021.9 0.0
27/01:00pm 26.0 18.2 2.7 22 11.4 SE 33 43 18 23 1022.8 1022.4 0.0
27/12:30pm 26.1 18.6 3.4 23 11.3 SE 32 43 17 23 1023.5 1023.1 0.0

Other Formats:

Comma delimited format used in spreadsheet applications
http://www.bom.gov.au/fwo/IDQ60801/IDQ60801.94341.axf

JavaScript Object Notation format (JSON) in row-major order
http://www.bom.gov.au/fwo/IDQ60801/IDQ60801.94341.json